createdAt,value
2023-01-31T00:00:05.997Z,24.51
2023-01-31T00:01:05.856Z,24.50
2023-01-31T00:02:05.988Z,24.43
2023-01-31T00:03:05.992Z,24.38
2023-01-31T00:04:05.928Z,24.40
2023-01-31T00:05:05.930Z,24.37
2023-01-31T00:06:05.873Z,24.36
2023-01-31T00:07:05.779Z,24.34
2023-01-31T00:08:05.852Z,24.34
2023-01-31T00:09:05.857Z,24.31
2023-01-31T00:10:05.865Z,24.26
2023-01-31T00:11:05.866Z,24.24
2023-01-31T00:12:05.875Z,24.22
2023-01-31T00:13:05.781Z,24.21
2023-01-31T00:14:05.786Z,24.09
2023-01-31T00:15:05.733Z,24.07
2023-01-31T00:16:06.175Z,24.07
2023-01-31T00:17:05.802Z,24.07
2023-01-31T00:18:05.813Z,24.07
2023-01-31T00:19:05.736Z,24.09
2023-01-31T00:20:05.666Z,24.11
2023-01-31T00:21:05.729Z,24.13
2023-01-31T00:22:05.671Z,24.16
2023-01-31T00:23:05.680Z,24.14
2023-01-31T00:24:05.757Z,24.21
2023-01-31T00:25:05.620Z,24.16
2023-01-31T00:26:05.592Z,24.14
2023-01-31T00:27:05.612Z,24.11
2023-01-31T00:28:05.610Z,24.10
2023-01-31T00:29:05.700Z,24.09
2023-01-31T00:30:05.656Z,24.09
2023-01-31T00:31:05.627Z,24.09
2023-01-31T00:32:05.765Z,24.07
2023-01-31T00:33:05.606Z,24.10
2023-01-31T00:34:05.546Z,24.10
2023-01-31T00:35:05.534Z,24.09
2023-01-31T00:36:05.625Z,24.07
2023-01-31T00:37:05.497Z,24.10
2023-01-31T00:38:05.476Z,24.09
2023-01-31T00:39:05.489Z,24.07
2023-01-31T00:40:05.559Z,24.04
2023-01-31T00:41:05.550Z,24.04
2023-01-31T00:42:05.506Z,24.04
2023-01-31T00:43:05.460Z,24.06
2023-01-31T00:44:05.416Z,24.07
2023-01-31T00:45:05.483Z,24.06
2023-01-31T00:46:05.428Z,24.06
2023-01-31T00:47:05.508Z,24.06
2023-01-31T00:48:05.502Z,24.00
2023-01-31T00:49:05.401Z,23.96
2023-01-31T00:50:05.414Z,23.94
2023-01-31T00:51:05.408Z,23.91
2023-01-31T00:52:05.414Z,23.94
2023-01-31T00:53:05.875Z,23.94
2023-01-31T00:54:05.384Z,23.96
2023-01-31T00:55:05.348Z,24.00
2023-01-31T00:56:05.347Z,24.01
2023-01-31T00:57:05.351Z,24.00
2023-01-31T00:58:05.305Z,24.01
2023-01-31T00:59:05.396Z,24.03
2023-01-31T01:00:05.319Z,24.04
2023-01-31T01:01:05.346Z,24.01
2023-01-31T01:02:05.258Z,24.00
2023-01-31T01:03:05.230Z,24.00
2023-01-31T01:04:05.313Z,23.99
2023-01-31T01:05:05.248Z,24.00
2023-01-31T01:06:05.320Z,23.99
2023-01-31T01:07:05.179Z,23.99
2023-01-31T01:08:05.222Z,24.00
2023-01-31T01:09:05.182Z,24.03
2023-01-31T01:10:06.091Z,24.01
2023-01-31T01:11:05.206Z,24.01
2023-01-31T01:12:05.260Z,23.96
2023-01-31T01:13:05.109Z,23.91
2023-01-31T01:14:05.887Z,23.88
2023-01-31T01:15:05.165Z,23.86
2023-01-31T01:16:05.235Z,23.84
2023-01-31T01:17:05.190Z,23.85
2023-01-31T01:18:05.092Z,23.85
2023-01-31T01:19:05.081Z,23.88
2023-01-31T01:20:05.032Z,23.89
2023-01-31T01:21:05.046Z,23.91
2023-01-31T01:22:05.123Z,23.91
2023-01-31T01:23:05.134Z,23.92
2023-01-31T01:24:05.017Z,23.88
2023-01-31T01:25:05.041Z,23.86
2023-01-31T01:26:05.035Z,23.81
2023-01-31T01:27:05.044Z,23.81
2023-01-31T01:28:05.011Z,23.81
2023-01-31T01:29:05.075Z,23.81
2023-01-31T01:30:04.970Z,23.82
2023-01-31T01:31:05.028Z,23.81
2023-01-31T01:32:05.035Z,23.82
2023-01-31T01:33:04.987Z,23.81
2023-01-31T01:34:04.948Z,23.82
2023-01-31T01:35:05.005Z,23.86
2023-01-31T01:36:05.057Z,23.88
2023-01-31T01:37:04.914Z,23.91
2023-01-31T01:38:04.881Z,23.94
2023-01-31T01:39:04.929Z,23.92
2023-01-31T01:40:05.050Z,23.91
2023-01-31T01:41:05.446Z,23.91
2023-01-31T01:42:04.852Z,23.88
2023-01-31T01:43:04.849Z,23.86
2023-01-31T01:44:04.865Z,23.82
2023-01-31T01:45:04.882Z,23.76
2023-01-31T01:46:05.008Z,23.71
2023-01-31T01:47:04.874Z,23.69
2023-01-31T01:48:04.777Z,23.67
2023-01-31T01:49:04.788Z,23.67
2023-01-31T01:50:04.996Z,23.64
2023-01-31T01:51:04.811Z,23.62
2023-01-31T01:52:05.733Z,23.63
2023-01-31T01:53:04.813Z,23.69
2023-01-31T01:54:04.733Z,23.70
2023-01-31T01:55:04.724Z,23.74
2023-01-31T01:56:04.772Z,23.76
2023-01-31T01:57:04.737Z,23.76
2023-01-31T01:58:04.747Z,23.76
2023-01-31T01:59:04.755Z,23.71
2023-01-31T02:00:04.657Z,23.67
2023-01-31T02:01:04.676Z,23.67
2023-01-31T02:02:04.689Z,23.63
2023-01-31T02:03:04.594Z,23.64
2023-01-31T02:04:04.547Z,23.62
2023-01-31T02:05:04.508Z,23.58
2023-01-31T02:06:05.542Z,23.54
2023-01-31T02:07:04.547Z,23.52
2023-01-31T02:08:04.525Z,23.51
2023-01-31T02:09:04.492Z,23.51
2023-01-31T02:10:04.541Z,23.51
2023-01-31T02:11:04.442Z,23.49
2023-01-31T02:12:04.550Z,23.51
2023-01-31T02:13:04.526Z,23.49
2023-01-31T02:14:04.495Z,23.49
2023-01-31T02:15:04.437Z,23.51
2023-01-31T02:16:05.060Z,23.55
2023-01-31T02:17:04.758Z,23.58
2023-01-31T02:18:04.488Z,23.62
2023-01-31T02:19:05.216Z,23.63
2023-01-31T02:20:04.366Z,23.66
2023-01-31T02:21:04.403Z,23.64
2023-01-31T02:22:04.377Z,23.63
2023-01-31T02:23:04.383Z,23.63
2023-01-31T02:24:04.328Z,23.59
2023-01-31T02:25:04.335Z,23.55
2023-01-31T02:26:04.334Z,23.52
2023-01-31T02:27:04.305Z,23.51
2023-01-31T02:28:04.264Z,23.49
2023-01-31T02:29:04.259Z,23.48
2023-01-31T02:30:04.258Z,23.45
2023-01-31T02:31:04.291Z,23.42
2023-01-31T02:32:04.289Z,23.40
2023-01-31T02:33:04.280Z,23.40
2023-01-31T02:34:04.349Z,23.39
2023-01-31T02:35:04.189Z,23.37
2023-01-31T02:36:04.266Z,23.36
2023-01-31T02:37:04.168Z,23.39
2023-01-31T02:38:04.212Z,23.40
2023-01-31T02:39:04.247Z,23.40
2023-01-31T02:40:04.158Z,23.37
2023-01-31T02:41:04.138Z,23.34
2023-01-31T02:42:04.164Z,23.32
2023-01-31T02:43:04.149Z,23.34
2023-01-31T02:44:04.159Z,23.36
2023-01-31T02:45:04.119Z,23.37
2023-01-31T02:46:04.193Z,23.34
2023-01-31T02:47:04.137Z,23.36
2023-01-31T02:48:04.141Z,23.34
2023-01-31T02:49:04.104Z,23.33
2023-01-31T02:50:05.084Z,23.34
2023-01-31T02:51:04.067Z,23.36
2023-01-31T02:52:04.269Z,23.39
2023-01-31T02:53:04.073Z,23.44
2023-01-31T02:54:04.097Z,23.48
2023-01-31T02:55:04.081Z,23.49
2023-01-31T02:56:04.519Z,23.48
2023-01-31T02:57:03.995Z,23.48
2023-01-31T02:58:04.007Z,23.51
2023-01-31T02:59:04.038Z,23.54
2023-01-31T03:00:04.018Z,23.54
2023-01-31T03:01:04.140Z,23.55
2023-01-31T03:02:04.103Z,23.58
2023-01-31T03:03:04.548Z,23.62
2023-01-31T03:04:03.907Z,23.66
2023-01-31T03:05:03.951Z,23.66
2023-01-31T03:06:03.960Z,23.63
2023-01-31T03:07:04.285Z,23.62
2023-01-31T03:08:04.172Z,23.59
2023-01-31T03:09:03.875Z,23.63
2023-01-31T03:10:03.887Z,23.64
2023-01-31T03:11:04.043Z,23.64
2023-01-31T03:12:03.910Z,23.58
2023-01-31T03:13:03.928Z,23.59
2023-01-31T03:14:03.908Z,23.62
2023-01-31T03:15:03.823Z,23.63
2023-01-31T03:16:03.820Z,23.67
2023-01-31T03:17:03.878Z,23.66
2023-01-31T03:18:03.833Z,23.62
2023-01-31T03:19:03.832Z,23.56
2023-01-31T03:20:03.849Z,23.55
2023-01-31T03:21:03.757Z,23.52
2023-01-31T03:22:03.790Z,23.48
2023-01-31T03:23:03.826Z,23.45
2023-01-31T03:24:03.735Z,23.40
2023-01-31T03:25:03.723Z,23.39
2023-01-31T03:26:03.683Z,23.37
2023-01-31T03:27:03.948Z,23.39
2023-01-31T03:28:03.652Z,23.39
2023-01-31T03:29:03.755Z,23.39
2023-01-31T03:30:03.710Z,23.40
2023-01-31T03:31:03.767Z,23.44
2023-01-31T03:32:03.724Z,23.42
2023-01-31T03:33:03.583Z,23.40
2023-01-31T03:34:03.591Z,23.40
2023-01-31T03:35:03.656Z,23.42
2023-01-31T03:36:03.649Z,23.44
2023-01-31T03:37:03.554Z,23.47
2023-01-31T03:38:03.620Z,23.44
2023-01-31T03:39:03.566Z,23.40
2023-01-31T03:40:03.522Z,23.39
2023-01-31T03:41:03.843Z,23.40
2023-01-31T03:42:03.595Z,23.40
2023-01-31T03:43:03.696Z,23.40
2023-01-31T03:44:03.454Z,23.40
2023-01-31T03:45:03.514Z,23.42
2023-01-31T03:46:03.489Z,23.37
2023-01-31T03:47:04.150Z,23.34
2023-01-31T03:48:03.490Z,23.26
2023-01-31T03:49:03.428Z,23.25
2023-01-31T03:50:03.437Z,23.23
2023-01-31T03:51:03.451Z,23.21
2023-01-31T03:52:03.405Z,23.20
2023-01-31T03:53:03.461Z,23.21
2023-01-31T03:54:03.419Z,23.23
2023-01-31T03:55:04.247Z,23.25
2023-01-31T03:56:03.376Z,23.25
2023-01-31T03:57:03.335Z,23.25
2023-01-31T03:58:03.320Z,23.25
2023-01-31T03:59:03.351Z,23.25
2023-01-31T04:00:03.334Z,23.17
2023-01-31T04:01:03.291Z,23.14
2023-01-31T04:02:03.351Z,23.14
2023-01-31T04:03:03.301Z,23.16
2023-01-31T04:04:03.284Z,23.11
2023-01-31T04:05:03.319Z,23.07
2023-01-31T04:06:03.511Z,23.06
2023-01-31T04:07:03.249Z,23.02
2023-01-31T04:08:03.234Z,22.95
2023-01-31T04:09:03.270Z,22.92
2023-01-31T04:10:03.266Z,22.91
2023-01-31T04:11:03.255Z,22.92
2023-01-31T04:12:03.211Z,22.93
2023-01-31T04:13:03.176Z,22.96
2023-01-31T04:14:03.121Z,22.93
2023-01-31T04:15:03.244Z,22.93
2023-01-31T04:16:03.168Z,22.95
2023-01-31T04:17:03.192Z,22.95
2023-01-31T04:18:03.366Z,22.96
2023-01-31T04:19:03.108Z,22.98
2023-01-31T04:20:03.063Z,22.99
2023-01-31T04:21:03.073Z,23.01
2023-01-31T04:22:03.089Z,23.06
2023-01-31T04:23:03.081Z,23.07
2023-01-31T04:24:03.064Z,23.08
2023-01-31T04:25:03.091Z,23.08
2023-01-31T04:26:03.112Z,23.10
2023-01-31T04:27:03.007Z,23.10
2023-01-31T04:28:03.010Z,23.13
2023-01-31T04:29:03.012Z,23.13
2023-01-31T04:30:02.980Z,23.11
2023-01-31T04:31:03.222Z,23.11
2023-01-31T04:32:03.077Z,23.11
2023-01-31T04:33:03.018Z,23.10
2023-01-31T04:34:02.992Z,23.11
2023-01-31T04:35:02.956Z,23.08
2023-01-31T04:36:02.923Z,23.01
2023-01-31T04:37:02.931Z,22.93
2023-01-31T04:38:02.945Z,22.91
2023-01-31T04:39:02.888Z,22.89
2023-01-31T04:40:02.913Z,22.86
2023-01-31T04:41:02.846Z,22.86
2023-01-31T04:42:02.855Z,22.84
2023-01-31T04:43:02.864Z,22.84
2023-01-31T04:44:02.873Z,22.84
2023-01-31T04:45:02.870Z,22.84
2023-01-31T04:46:02.833Z,22.77
2023-01-31T04:47:02.928Z,22.74
2023-01-31T04:48:02.804Z,22.73
2023-01-31T04:49:02.793Z,22.74
2023-01-31T04:50:02.824Z,22.76
2023-01-31T04:51:02.751Z,22.74
2023-01-31T04:52:02.753Z,22.76
2023-01-31T04:53:02.714Z,22.76
2023-01-31T04:54:02.735Z,22.77
2023-01-31T04:55:02.734Z,22.80
2023-01-31T04:56:02.760Z,22.81
2023-01-31T04:57:02.750Z,22.83
2023-01-31T04:58:04.388Z,22.84
2023-01-31T04:59:02.661Z,22.83
2023-01-31T05:00:02.671Z,22.81
2023-01-31T05:01:02.714Z,22.83
2023-01-31T05:02:02.687Z,22.83
2023-01-31T05:03:02.861Z,22.86
2023-01-31T05:04:02.644Z,22.88
2023-01-31T05:05:02.602Z,22.88
2023-01-31T05:06:02.607Z,22.89
2023-01-31T05:07:02.624Z,22.88
2023-01-31T05:08:02.650Z,22.88
2023-01-31T05:09:02.587Z,22.86
2023-01-31T05:10:02.572Z,22.86
2023-01-31T05:11:04.228Z,22.86
2023-01-31T05:12:03.186Z,22.89
2023-01-31T05:13:02.602Z,22.88
2023-01-31T05:14:02.527Z,22.88
2023-01-31T05:15:02.591Z,22.86
2023-01-31T05:16:02.594Z,22.86
2023-01-31T05:17:02.477Z,22.83
2023-01-31T05:18:02.482Z,22.81
2023-01-31T05:19:02.502Z,22.81
2023-01-31T05:20:02.495Z,22.81
2023-01-31T05:21:02.508Z,22.73
2023-01-31T05:22:02.515Z,22.73
2023-01-31T05:23:02.410Z,22.71
2023-01-31T05:24:02.421Z,22.73
2023-01-31T05:25:02.447Z,22.73
2023-01-31T05:26:02.542Z,22.76
2023-01-31T05:27:02.511Z,22.77
2023-01-31T05:28:02.392Z,22.80
2023-01-31T05:29:02.389Z,22.83
2023-01-31T05:30:02.367Z,22.83
2023-01-31T05:31:02.949Z,22.81
2023-01-31T05:32:03.389Z,22.83
2023-01-31T05:33:02.800Z,22.81
2023-01-31T05:34:02.670Z,22.81
2023-01-31T05:35:02.796Z,22.80
2023-01-31T05:36:02.540Z,22.77
2023-01-31T05:37:02.538Z,22.77
2023-01-31T05:38:02.621Z,22.77
2023-01-31T05:39:02.551Z,22.78
2023-01-31T05:40:02.363Z,22.78
2023-01-31T05:41:02.290Z,22.81
2023-01-31T05:42:02.268Z,22.81
2023-01-31T05:43:03.152Z,22.84
2023-01-31T05:44:02.751Z,22.84
2023-01-31T05:45:02.746Z,22.86
2023-01-31T05:46:02.599Z,22.80
2023-01-31T05:47:02.547Z,22.78
2023-01-31T05:48:02.513Z,22.77
2023-01-31T05:49:02.245Z,22.71
2023-01-31T05:50:02.165Z,22.67
2023-01-31T05:51:02.375Z,22.62
2023-01-31T05:52:02.210Z,22.58
2023-01-31T05:53:02.129Z,22.56
2023-01-31T05:54:03.023Z,22.55
2023-01-31T05:55:02.790Z,22.56
2023-01-31T05:56:02.602Z,22.56
2023-01-31T05:57:02.814Z,22.56
2023-01-31T05:58:02.469Z,22.53
2023-01-31T05:59:02.612Z,22.53
2023-01-31T06:00:02.403Z,22.46
2023-01-31T06:01:02.224Z,22.37
2023-01-31T06:02:02.408Z,22.36
2023-01-31T06:03:02.142Z,22.33
2023-01-31T06:04:02.094Z,22.33
2023-01-31T06:05:01.955Z,22.31
2023-01-31T06:06:02.027Z,22.26
2023-01-31T06:07:02.070Z,22.26
2023-01-31T06:08:02.511Z,22.30
2023-01-31T06:09:02.047Z,22.30
2023-01-31T06:10:02.425Z,22.31
2023-01-31T06:11:01.964Z,22.34
2023-01-31T06:12:01.966Z,22.36
2023-01-31T06:13:01.969Z,22.30
2023-01-31T06:14:02.172Z,22.26
2023-01-31T06:15:01.886Z,22.26
2023-01-31T06:16:01.818Z,22.25
2023-01-31T06:17:01.897Z,22.23
2023-01-31T06:18:01.837Z,22.25
2023-01-31T06:19:01.846Z,22.30
2023-01-31T06:20:01.899Z,22.33
2023-01-31T06:21:01.817Z,22.31
2023-01-31T06:22:01.832Z,22.30
2023-01-31T06:23:01.770Z,22.30
2023-01-31T06:24:01.776Z,22.31
2023-01-31T06:25:01.781Z,22.33
2023-01-31T06:26:01.798Z,22.34
2023-01-31T06:27:01.860Z,22.36
2023-01-31T06:28:01.757Z,22.38
2023-01-31T06:29:01.703Z,22.40
2023-01-31T06:30:01.791Z,22.40
2023-01-31T06:31:01.865Z,22.41
2023-01-31T06:32:01.732Z,22.43
2023-01-31T06:33:01.725Z,22.41
2023-01-31T06:34:01.637Z,22.43
2023-01-31T06:35:01.693Z,22.43
2023-01-31T06:36:01.742Z,22.44
2023-01-31T06:37:01.715Z,22.41
2023-01-31T06:38:01.672Z,22.38
2023-01-31T06:39:01.678Z,22.37
2023-01-31T06:40:01.575Z,22.38
2023-01-31T06:41:01.583Z,22.38
2023-01-31T06:42:01.853Z,22.38
2023-01-31T06:43:01.594Z,22.37
2023-01-31T06:44:01.669Z,22.37
2023-01-31T06:45:01.573Z,22.38
2023-01-31T06:46:01.603Z,22.38
2023-01-31T06:47:01.635Z,22.40
2023-01-31T06:48:01.614Z,22.40
2023-01-31T06:49:01.747Z,22.40
2023-01-31T06:50:01.587Z,22.38
2023-01-31T06:51:01.506Z,22.38
2023-01-31T06:52:01.811Z,22.41
2023-01-31T06:53:01.526Z,22.43
2023-01-31T06:54:01.466Z,22.44
2023-01-31T06:55:01.570Z,22.38
2023-01-31T06:56:01.521Z,22.36
2023-01-31T06:57:01.460Z,22.37
2023-01-31T06:58:01.425Z,22.38
2023-01-31T06:59:01.431Z,22.23
2023-01-31T07:00:01.500Z,22.19
2023-01-31T07:01:01.453Z,22.18
2023-01-31T07:02:01.382Z,22.19
2023-01-31T07:03:01.382Z,22.22
2023-01-31T07:04:01.332Z,22.25
2023-01-31T07:05:01.479Z,22.25
2023-01-31T07:06:01.426Z,22.26
2023-01-31T07:07:02.879Z,22.28
2023-01-31T07:08:01.313Z,22.28
2023-01-31T07:09:01.436Z,22.25
2023-01-31T07:10:01.367Z,22.23
2023-01-31T07:11:01.274Z,22.22
2023-01-31T07:12:01.276Z,22.15
2023-01-31T07:13:01.257Z,22.15
2023-01-31T07:14:01.236Z,22.15
2023-01-31T07:15:01.242Z,22.16
2023-01-31T07:16:01.313Z,22.16
2023-01-31T07:17:01.206Z,22.16
2023-01-31T07:18:01.671Z,22.19
2023-01-31T07:19:01.193Z,22.21
2023-01-31T07:20:01.205Z,22.19
2023-01-31T07:21:01.153Z,22.18
2023-01-31T07:22:01.187Z,22.18
2023-01-31T07:23:01.197Z,22.19
2023-01-31T07:24:01.601Z,22.21
2023-01-31T07:25:01.107Z,22.22
2023-01-31T07:26:01.823Z,22.23
2023-01-31T07:27:01.125Z,22.25
2023-01-31T07:28:01.174Z,22.25
2023-01-31T07:29:01.073Z,22.25
2023-01-31T07:30:01.148Z,22.25
2023-01-31T07:31:01.060Z,22.25
2023-01-31T07:32:01.124Z,22.25
2023-01-31T07:33:01.052Z,22.28
2023-01-31T07:34:01.016Z,22.28
2023-01-31T07:35:01.071Z,22.28
2023-01-31T07:36:02.558Z,22.28
2023-01-31T07:37:00.974Z,22.30
2023-01-31T07:38:01.050Z,22.31
2023-01-31T07:39:00.995Z,22.31
2023-01-31T07:40:00.951Z,22.30
2023-01-31T07:41:01.008Z,22.31
2023-01-31T07:42:01.174Z,22.30
2023-01-31T07:43:00.934Z,22.31
2023-01-31T07:44:00.979Z,22.33
2023-01-31T07:45:10.056Z,22.34
2023-01-31T07:46:00.941Z,22.25
2023-01-31T07:47:00.937Z,22.22
2023-01-31T07:48:01.672Z,22.21
2023-01-31T07:49:00.845Z,22.21
2023-01-31T07:50:00.856Z,22.22
2023-01-31T07:51:00.876Z,22.18
2023-01-31T07:52:00.929Z,22.16
2023-01-31T07:53:00.935Z,22.16
2023-01-31T07:54:00.988Z,22.16
2023-01-31T07:55:00.893Z,22.16
2023-01-31T07:56:00.887Z,22.18
2023-01-31T07:57:00.902Z,22.18
2023-01-31T07:58:00.919Z,22.18
2023-01-31T07:59:00.916Z,22.18
2023-01-31T08:00:00.960Z,22.18
2023-01-31T08:01:00.830Z,22.21
2023-01-31T08:02:00.829Z,22.23
2023-01-31T08:03:00.834Z,22.25
2023-01-31T08:04:10.767Z,22.23
2023-01-31T08:05:00.980Z,22.28
2023-01-31T08:06:00.861Z,22.28
2023-01-31T08:07:00.759Z,22.26
2023-01-31T08:08:00.765Z,22.26
2023-01-31T08:09:00.775Z,22.25
2023-01-31T08:10:00.780Z,22.19
2023-01-31T08:11:00.786Z,22.18
2023-01-31T08:12:00.797Z,22.18
2023-01-31T08:13:00.615Z,22.19
2023-01-31T08:14:00.831Z,22.21
2023-01-31T08:15:00.631Z,22.22
2023-01-31T08:16:00.643Z,22.25
2023-01-31T08:17:00.705Z,22.25
2023-01-31T08:18:00.728Z,22.28
2023-01-31T08:19:00.634Z,22.28
2023-01-31T08:20:00.607Z,22.28
2023-01-31T08:21:00.654Z,22.30
2023-01-31T08:22:00.662Z,22.31
2023-01-31T08:23:00.599Z,22.31
2023-01-31T08:24:01.680Z,22.34
2023-01-31T08:25:00.603Z,22.36
2023-01-31T08:26:00.559Z,22.34
2023-01-31T08:27:00.546Z,22.33
2023-01-31T08:28:00.579Z,22.31
2023-01-31T08:29:00.575Z,22.30
2023-01-31T08:30:00.544Z,22.28
2023-01-31T08:31:08.494Z,22.22
2023-01-31T08:32:00.759Z,22.22
2023-01-31T08:33:00.410Z,22.22
2023-01-31T08:34:00.416Z,22.22
2023-01-31T08:35:00.535Z,22.19
2023-01-31T08:36:00.566Z,22.19
2023-01-31T08:37:00.610Z,22.19
2023-01-31T08:38:15.362Z,22.19
2023-01-31T08:39:00.564Z,22.19
2023-01-31T08:40:00.294Z,22.23
2023-01-31T08:41:00.401Z,22.25
2023-01-31T08:42:02.414Z,22.28
2023-01-31T08:43:00.302Z,22.26
2023-01-31T08:44:02.215Z,22.26
2023-01-31T08:45:00.510Z,22.25
2023-01-31T08:46:00.313Z,22.22
2023-01-31T08:47:00.366Z,22.21
2023-01-31T08:48:00.319Z,22.21
2023-01-31T08:49:00.303Z,22.23
2023-01-31T08:50:00.260Z,22.25
2023-01-31T08:51:00.232Z,22.26
2023-01-31T08:52:00.258Z,22.30
2023-01-31T08:53:00.272Z,22.30
2023-01-31T08:54:00.259Z,22.30
2023-01-31T08:55:00.181Z,22.30
2023-01-31T08:56:00.197Z,22.28
2023-01-31T08:57:00.188Z,22.28
2023-01-31T08:58:00.625Z,22.26
2023-01-31T08:59:00.134Z,22.28
2023-01-31T09:00:00.202Z,22.25
2023-01-31T09:01:00.172Z,22.25
2023-01-31T09:02:00.293Z,22.25
2023-01-31T09:03:00.106Z,22.26
2023-01-31T09:04:00.110Z,22.28
2023-01-31T09:05:00.178Z,22.26
2023-01-31T09:06:00.079Z,22.26
2023-01-31T09:07:00.045Z,22.28
2023-01-31T09:08:00.079Z,22.28
2023-01-31T09:09:00.677Z,22.30
2023-01-31T09:10:00.109Z,22.30
2023-01-31T09:11:00.048Z,22.30
2023-01-31T09:12:00.107Z,22.31
2023-01-31T09:13:00.093Z,22.28
2023-01-31T09:13:59.982Z,22.21
2023-01-31T09:14:59.993Z,22.19
2023-01-31T09:15:59.982Z,22.18
2023-01-31T09:17:00.013Z,22.15
2023-01-31T09:17:59.953Z,22.15
2023-01-31T09:18:59.962Z,22.10
2023-01-31T09:19:59.927Z,22.06
2023-01-31T09:20:59.902Z,22.04
2023-01-31T09:21:59.849Z,22.06
2023-01-31T09:22:59.918Z,22.08
2023-01-31T09:23:59.931Z,22.10
2023-01-31T09:24:59.866Z,22.14
2023-01-31T09:25:59.839Z,22.14
2023-01-31T09:26:59.852Z,22.14
2023-01-31T09:27:59.850Z,22.16
2023-01-31T09:28:59.801Z,22.22
2023-01-31T09:29:59.800Z,22.23
2023-01-31T09:30:59.960Z,22.22
2023-01-31T09:31:59.852Z,22.23
2023-01-31T09:32:59.844Z,22.25
2023-01-31T09:33:59.924Z,22.28
2023-01-31T09:34:59.793Z,22.28
2023-01-31T09:35:59.815Z,22.30
2023-01-31T09:36:59.737Z,22.26
2023-01-31T09:37:59.720Z,22.25
2023-01-31T09:38:59.716Z,22.25
2023-01-31T09:39:59.729Z,22.22
2023-01-31T09:40:59.691Z,22.21
2023-01-31T09:41:59.645Z,22.22
2023-01-31T09:42:59.706Z,22.25
2023-01-31T09:43:59.680Z,22.28
2023-01-31T09:44:59.729Z,22.28
2023-01-31T09:45:59.642Z,22.25
2023-01-31T09:46:59.786Z,22.25
2023-01-31T09:48:00.296Z,22.25
2023-01-31T09:48:59.612Z,22.26
2023-01-31T09:49:59.643Z,22.28
2023-01-31T09:50:59.576Z,22.28
2023-01-31T09:51:59.582Z,22.28
2023-01-31T09:52:59.587Z,22.28
2023-01-31T09:53:59.595Z,22.31
2023-01-31T09:54:59.604Z,22.33
2023-01-31T09:55:59.520Z,22.34
2023-01-31T09:56:59.520Z,22.31
2023-01-31T09:57:59.527Z,22.33
2023-01-31T09:58:59.524Z,22.33
2023-01-31T09:59:59.484Z,22.34
2023-01-31T10:00:59.493Z,22.36
2023-01-31T10:01:59.433Z,22.36
2023-01-31T10:02:59.465Z,22.36
2023-01-31T10:03:59.438Z,22.36
2023-01-31T10:04:59.421Z,22.33
2023-01-31T10:05:59.424Z,22.28
2023-01-31T10:06:59.425Z,22.23
2023-01-31T10:07:59.386Z,22.19
2023-01-31T10:08:59.399Z,22.18
2023-01-31T10:09:59.425Z,22.16
2023-01-31T10:10:59.460Z,22.18
2023-01-31T10:11:59.371Z,22.19
2023-01-31T10:12:59.302Z,22.23
2023-01-31T10:13:59.321Z,22.25
2023-01-31T10:14:59.336Z,22.28
2023-01-31T10:15:59.445Z,22.31
2023-01-31T10:16:59.328Z,22.31
2023-01-31T10:17:59.748Z,22.34
2023-01-31T10:18:59.355Z,22.36
2023-01-31T10:19:59.363Z,22.36
2023-01-31T10:20:59.324Z,22.34
2023-01-31T10:21:59.265Z,22.36
2023-01-31T10:22:59.235Z,22.37
2023-01-31T10:23:59.236Z,22.37
2023-01-31T10:24:59.290Z,22.37
2023-01-31T10:25:59.303Z,22.34
2023-01-31T10:26:59.182Z,22.31
2023-01-31T10:27:59.322Z,22.34
2023-01-31T10:28:59.212Z,22.34
2023-01-31T10:29:59.217Z,22.37
2023-01-31T10:30:59.250Z,22.40
2023-01-31T10:31:59.307Z,22.46
2023-01-31T10:32:59.243Z,22.46
2023-01-31T10:33:59.141Z,22.47
2023-01-31T10:34:59.184Z,22.51
2023-01-31T10:35:59.151Z,22.49
2023-01-31T10:36:59.184Z,22.44
2023-01-31T10:37:59.153Z,22.41
2023-01-31T10:38:59.074Z,22.41
2023-01-31T10:39:59.175Z,22.40
2023-01-31T10:40:59.089Z,22.44
2023-01-31T10:41:59.090Z,22.47
2023-01-31T10:42:58.996Z,22.51
2023-01-31T10:43:59.133Z,22.51
2023-01-31T10:44:59.077Z,22.53
2023-01-31T10:45:59.025Z,22.53
2023-01-31T10:46:59.056Z,22.53
2023-01-31T10:47:59.087Z,22.56
2023-01-31T10:48:58.965Z,22.59
2023-01-31T10:49:58.965Z,22.62
2023-01-31T10:50:58.906Z,22.65
2023-01-31T10:51:58.888Z,22.67
2023-01-31T10:52:58.895Z,22.65
2023-01-31T10:53:59.228Z,22.62
2023-01-31T10:54:58.907Z,22.59
2023-01-31T10:55:59.081Z,22.55
2023-01-31T10:56:59.105Z,22.58
2023-01-31T10:57:59.227Z,22.58
2023-01-31T10:58:59.136Z,22.59
2023-01-31T10:59:58.943Z,22.62
2023-01-31T11:00:59.080Z,22.65
2023-01-31T11:01:58.846Z,22.67
2023-01-31T11:02:58.764Z,22.65
2023-01-31T11:03:58.760Z,22.67
2023-01-31T11:04:58.834Z,22.71
2023-01-31T11:05:59.697Z,22.74
2023-01-31T11:06:58.787Z,22.73
2023-01-31T11:07:58.700Z,22.70
2023-01-31T11:08:58.698Z,22.68
2023-01-31T11:09:58.796Z,22.63
2023-01-31T11:10:58.787Z,22.63
2023-01-31T11:11:58.886Z,22.65
2023-01-31T11:12:58.770Z,22.70
2023-01-31T11:13:58.620Z,22.70
2023-01-31T11:14:58.655Z,22.76
2023-01-31T11:15:58.642Z,22.81
2023-01-31T11:16:58.698Z,22.84
2023-01-31T11:17:58.954Z,22.86
2023-01-31T11:18:58.657Z,22.89
2023-01-31T11:19:58.569Z,22.92
2023-01-31T11:20:58.564Z,22.93
2023-01-31T11:21:58.578Z,22.95
2023-01-31T11:22:58.588Z,22.93
2023-01-31T11:23:58.654Z,22.93
2023-01-31T11:24:58.558Z,22.95
2023-01-31T11:25:58.507Z,22.92
2023-01-31T11:26:58.515Z,22.89
2023-01-31T11:27:58.521Z,22.91
2023-01-31T11:28:58.520Z,22.91
2023-01-31T11:30:00.266Z,22.91
2023-01-31T11:30:58.534Z,22.91
2023-01-31T11:31:58.544Z,22.92
2023-01-31T11:32:58.722Z,22.93
2023-01-31T11:33:58.556Z,23.04
2023-01-31T11:34:58.453Z,23.16
2023-01-31T11:35:58.484Z,23.23
2023-01-31T11:36:58.374Z,23.32
2023-01-31T11:37:58.385Z,23.42
2023-01-31T11:38:58.394Z,23.47
2023-01-31T11:39:58.407Z,23.49
2023-01-31T11:40:58.394Z,23.51
2023-01-31T11:41:58.804Z,23.47
2023-01-31T11:42:58.308Z,23.42
2023-01-31T11:43:58.416Z,23.36
2023-01-31T11:44:58.401Z,23.32
2023-01-31T11:45:58.443Z,23.28
2023-01-31T11:46:58.443Z,23.29
2023-01-31T11:47:58.390Z,23.34
2023-01-31T11:48:58.341Z,23.39
2023-01-31T11:49:58.368Z,23.44
2023-01-31T11:50:58.513Z,23.48
2023-01-31T11:51:58.333Z,23.51
2023-01-31T11:52:58.286Z,23.49
2023-01-31T11:53:58.284Z,23.51
2023-01-31T11:54:58.255Z,23.54
2023-01-31T11:55:58.545Z,23.58
2023-01-31T11:56:58.197Z,23.62
2023-01-31T11:57:58.256Z,23.59
2023-01-31T11:58:58.222Z,23.58
2023-01-31T11:59:58.220Z,23.58
2023-01-31T12:00:58.645Z,23.59
2023-01-31T12:01:58.235Z,23.67
2023-01-31T12:02:58.140Z,23.73
2023-01-31T12:04:03.125Z,23.73
2023-01-31T12:04:58.149Z,23.71
2023-01-31T12:05:58.168Z,23.73
2023-01-31T12:06:58.153Z,23.71
2023-01-31T12:07:58.092Z,23.70
2023-01-31T12:08:58.253Z,23.69
2023-01-31T12:09:58.091Z,23.67
2023-01-31T12:10:58.143Z,23.70
2023-01-31T12:11:58.306Z,23.79
2023-01-31T12:13:08.833Z,23.85
2023-01-31T12:13:58.003Z,23.91
2023-01-31T12:14:58.905Z,23.95
2023-01-31T12:15:58.100Z,24.00
2023-01-31T12:16:58.142Z,24.04
2023-01-31T12:17:58.144Z,24.09
2023-01-31T12:18:58.014Z,24.13
2023-01-31T12:19:58.008Z,24.18
2023-01-31T12:20:57.966Z,24.24
2023-01-31T12:21:57.957Z,24.24
2023-01-31T12:22:58.041Z,24.24
2023-01-31T12:23:57.991Z,24.25
2023-01-31T12:24:58.062Z,24.26
2023-01-31T12:25:57.902Z,24.25
2023-01-31T12:26:57.976Z,24.26
2023-01-31T12:27:57.975Z,24.22
2023-01-31T12:28:57.899Z,24.18
2023-01-31T12:29:57.977Z,24.14
2023-01-31T12:30:59.117Z,24.11
2023-01-31T12:31:57.852Z,24.11
2023-01-31T12:32:58.021Z,24.10
2023-01-31T12:33:58.012Z,24.10
2023-01-31T12:35:02.241Z,24.09
2023-01-31T12:35:58.736Z,24.04
2023-01-31T12:36:57.758Z,24.01
2023-01-31T12:37:57.782Z,24.06
2023-01-31T12:38:57.767Z,24.09
2023-01-31T12:39:57.783Z,24.14
2023-01-31T12:40:57.802Z,24.19
2023-01-31T12:41:57.760Z,24.26
2023-01-31T12:42:57.708Z,24.26
2023-01-31T12:43:57.732Z,24.26
2023-01-31T12:44:57.712Z,24.22
2023-01-31T12:45:57.728Z,24.21
2023-01-31T12:47:10.171Z,24.24
2023-01-31T12:47:57.706Z,24.29
2023-01-31T12:48:57.662Z,24.37
2023-01-31T12:49:57.636Z,24.40
2023-01-31T12:50:57.616Z,24.43
2023-01-31T12:51:57.618Z,24.50